createdAt,value
2018-09-09T13:25:05.809Z,32160.00
2018-09-09T13:26:05.701Z,23520.00
2018-09-09T13:28:09.623Z,29984.00
2018-09-09T13:29:09.490Z,30368.00
2018-09-09T13:30:09.437Z,44736.00
2018-09-09T13:31:09.380Z,21152.00
2018-09-09T13:32:09.320Z,20224.00
2018-09-09T13:33:09.260Z,14332.00
2018-09-09T13:34:09.198Z,13020.00
2018-09-09T13:35:09.142Z,12344.00
2018-09-09T13:36:09.087Z,12552.00
2018-09-09T13:37:11.505Z,12748.00
2018-09-09T13:38:08.972Z,12588.00
2018-09-09T13:39:08.913Z,13336.00
2018-09-09T13:40:08.842Z,12440.00
2018-09-09T13:41:08.781Z,12320.00
2018-09-09T13:42:08.716Z,12360.00
2018-09-09T13:43:08.656Z,11764.00
2018-09-09T13:44:08.593Z,12196.00
2018-09-09T13:45:08.536Z,11188.00
2018-09-09T13:46:08.481Z,11112.00
2018-09-09T13:47:08.411Z,10808.00
2018-09-09T13:48:08.419Z,10624.00
2018-09-09T13:49:08.293Z,10196.00
2018-09-09T13:50:08.223Z,9988.00
2018-09-09T13:51:08.161Z,9912.00
2018-09-09T13:52:08.095Z,10168.00
2018-09-09T13:53:08.031Z,10472.00
2018-09-09T13:54:07.965Z,11040.00
2018-09-09T13:55:07.924Z,12068.00
2018-09-09T13:56:07.851Z,14444.00
2018-09-09T13:57:07.785Z,17312.00
2018-09-09T13:58:07.742Z,18816.00
2018-09-09T13:59:07.694Z,18528.00
2018-09-09T14:00:07.579Z,20416.00
2018-09-09T14:01:07.516Z,16224.00
2018-09-09T14:02:07.453Z,19008.00
2018-09-09T14:03:07.385Z,18656.00
2018-09-09T14:04:07.324Z,16384.00
2018-09-09T14:05:07.258Z,15120.00
2018-09-09T14:06:07.195Z,16480.00
2018-09-09T14:07:07.128Z,16832.00
2018-09-09T14:08:07.063Z,39712.00
2018-09-09T14:09:07.000Z,48576.00
2018-09-09T14:10:06.930Z,25248.00
2018-09-09T14:11:06.872Z,42816.00
2018-09-09T14:12:06.804Z,31936.00
2018-09-09T14:13:06.734Z,21088.00
2018-09-09T14:14:06.676Z,20384.00
2018-09-09T14:15:06.636Z,16544.00
2018-09-09T14:16:06.593Z,14436.00
2018-09-09T14:17:06.478Z,14528.00
2018-09-09T14:18:06.412Z,15324.00
2018-09-09T14:19:06.357Z,14656.00
2018-09-09T14:20:06.282Z,15744.00
2018-09-09T14:21:06.231Z,19360.00
2018-09-09T14:22:06.216Z,15152.00
2018-09-09T14:23:06.094Z,17888.00
2018-09-09T14:24:06.052Z,21344.00
2018-09-09T14:25:05.962Z,19776.00
2018-09-09T14:26:05.899Z,17664.00
2018-09-09T14:27:05.833Z,35456.00
2018-09-09T14:28:05.775Z,31456.00
2018-09-09T14:29:05.705Z,20864.00
2018-09-09T14:30:05.644Z,18912.00
2018-09-09T14:31:05.592Z,21536.00
2018-09-09T14:32:05.521Z,16800.00
2018-09-09T14:33:05.447Z,14828.00
2018-09-09T14:34:05.379Z,12984.00
2018-09-09T14:35:05.391Z,12100.00
2018-09-09T14:36:05.292Z,11472.00
2018-09-09T14:37:05.199Z,11008.00
2018-09-09T14:38:05.131Z,11020.00
2018-09-09T14:39:05.056Z,11448.00
2018-09-09T14:40:05.563Z,11540.00
2018-09-09T14:41:04.923Z,13264.00
2018-09-09T14:42:04.859Z,12516.00
2018-09-09T14:43:04.794Z,12556.00
2018-09-09T14:44:04.729Z,13420.00
2018-09-09T14:45:04.671Z,11952.00
2018-09-09T14:46:04.622Z,12740.00
2018-09-09T14:47:04.540Z,12288.00
2018-09-09T14:48:04.467Z,12680.00
2018-09-09T14:49:04.407Z,14628.00
2018-09-09T14:50:04.336Z,13456.00
2018-09-09T14:51:04.278Z,13008.00
2018-09-09T14:52:04.226Z,12776.00
2018-09-09T14:53:04.231Z,12852.00
2018-09-09T14:54:04.081Z,11984.00
2018-09-09T14:55:04.009Z,11580.00
2018-09-09T14:56:03.948Z,11376.00
2018-09-09T14:57:03.878Z,11180.00
2018-09-09T14:58:03.811Z,11128.00
2018-09-09T14:59:03.771Z,10772.00
2018-09-09T15:00:03.687Z,10796.00
2018-09-09T15:01:03.614Z,10716.00
2018-09-09T15:02:03.548Z,10596.00
2018-09-09T15:03:03.488Z,10420.00
2018-09-09T15:04:03.418Z,10272.00
2018-09-09T15:05:03.357Z,10188.00
2018-09-09T15:06:03.287Z,10044.00
2018-09-09T15:07:03.224Z,9836.00
2018-09-09T15:08:03.156Z,9700.00
2018-09-09T15:09:03.088Z,9604.00
2018-09-09T15:10:03.060Z,9680.00
2018-09-09T15:11:02.966Z,9992.00
2018-09-09T15:12:02.898Z,10468.00
2018-09-09T15:13:02.825Z,10800.00
2018-09-09T15:14:02.762Z,10956.00
2018-09-09T15:15:02.694Z,11792.00
2018-09-09T15:16:02.628Z,13236.00
2018-09-09T15:17:02.560Z,19200.00
2018-09-09T15:18:02.493Z,34048.00
2018-09-09T15:19:02.426Z,28896.00
2018-09-09T15:20:02.362Z,30400.00
2018-09-09T15:21:02.303Z,32064.00
2018-09-09T15:22:02.233Z,36128.00
2018-09-09T15:23:02.165Z,39168.00
2018-09-09T15:24:02.097Z,31936.00
2018-09-09T15:25:02.034Z,34656.00
2018-09-09T15:26:01.974Z,35456.00
2018-09-09T15:27:01.903Z,30240.00
2018-09-09T15:28:01.839Z,34016.00
2018-09-09T15:29:01.781Z,32704.00
2018-09-09T15:30:01.714Z,27520.00
2018-09-09T15:31:01.650Z,24224.00
2018-09-09T15:32:01.588Z,17600.00
2018-09-09T15:33:01.530Z,16448.00
2018-09-09T15:34:01.467Z,27008.00
2018-09-09T15:35:01.407Z,27840.00
2018-09-09T15:36:01.345Z,22976.00
2018-09-09T15:37:01.276Z,17248.00
2018-09-09T15:38:01.221Z,17248.00
2018-09-09T15:39:01.186Z,12684.00
2018-09-09T15:40:01.167Z,8132.00
2018-09-09T15:41:01.101Z,11756.00
2018-09-09T15:42:00.971Z,6468.00
2018-09-09T15:43:00.908Z,6912.00
2018-09-09T15:44:00.846Z,11576.00
2018-09-09T15:45:00.784Z,16800.00
2018-09-09T15:46:00.720Z,14816.00
2018-09-09T15:47:00.665Z,18560.00
2018-09-09T15:48:00.600Z,15360.00
2018-09-09T15:49:00.557Z,10868.00
2018-09-09T15:50:00.476Z,9144.00
2018-09-09T15:51:00.412Z,6120.00
2018-09-09T15:52:00.396Z,5860.00
2018-09-09T15:53:00.285Z,5968.00
2018-09-09T15:54:00.227Z,8792.00
2018-09-09T15:55:00.159Z,16672.00
2018-09-09T15:56:00.102Z,7544.00
2018-09-09T15:57:00.037Z,10204.00
2018-09-09T15:57:59.999Z,6480.00
2018-09-09T15:58:59.910Z,4824.00
2018-09-09T15:59:59.844Z,5684.00
2018-09-09T16:00:59.803Z,4640.00
2018-09-09T16:01:59.718Z,4772.00
2018-09-09T16:02:59.671Z,7316.00
2018-09-09T16:03:59.591Z,4292.00
2018-09-09T16:04:59.535Z,4164.00
2018-09-09T16:05:59.477Z,4072.00
2018-09-09T16:06:59.400Z,4264.00
2018-09-09T16:07:59.344Z,4204.00
2018-09-09T16:08:59.268Z,4220.00
2018-09-09T16:09:59.210Z,4168.00
2018-09-09T16:10:59.146Z,4268.00
2018-09-09T16:11:59.082Z,3932.00
2018-09-09T16:12:59.017Z,3616.00
2018-09-09T16:13:58.979Z,3428.00
2018-09-09T16:14:59.102Z,3308.00
2018-09-09T16:15:58.815Z,3168.00
2018-09-09T16:16:58.750Z,3156.00
2018-09-09T16:17:58.690Z,3216.00
2018-09-09T16:18:58.621Z,3352.00
2018-09-09T16:19:58.553Z,3700.00
2018-09-09T16:20:58.491Z,3784.00
2018-09-09T16:21:58.445Z,3984.00
2018-09-09T16:22:58.356Z,4020.00
2018-09-09T16:23:58.290Z,4032.00
2018-09-09T16:24:58.231Z,4004.00
2018-09-09T16:25:58.160Z,3896.00
2018-09-09T16:26:58.095Z,3812.00
2018-09-09T16:27:58.038Z,3800.00
2018-09-09T16:28:57.989Z,3812.00
2018-09-09T16:29:57.892Z,3860.00
2018-09-09T16:30:57.833Z,3888.00
2018-09-09T16:31:57.787Z,3916.00
2018-09-09T16:32:57.690Z,3872.00
2018-09-09T16:33:57.629Z,3780.00
2018-09-09T16:34:57.599Z,3660.00
2018-09-09T16:35:57.494Z,3544.00
2018-09-09T16:36:57.459Z,3420.00
2018-09-09T16:37:57.363Z,3332.00
2018-09-09T16:38:57.343Z,3280.00
2018-09-09T16:39:57.258Z,3252.00
2018-09-09T16:40:57.159Z,3248.00
2018-09-09T16:41:57.104Z,3268.00
2018-09-09T16:42:57.069Z,3252.00
2018-09-09T16:43:56.957Z,3168.00
2018-09-09T16:44:56.886Z,3016.00
2018-09-09T16:45:56.826Z,2824.00
2018-09-09T16:46:56.755Z,2644.00
2018-09-09T16:47:56.683Z,2464.00
2018-09-09T16:48:56.614Z,2316.00
2018-09-09T16:49:56.549Z,2180.00
2018-09-09T16:50:56.484Z,2032.00
2018-09-09T16:51:56.414Z,1880.00
2018-09-09T16:52:56.381Z,1748.00
2018-09-09T16:53:56.277Z,1656.00
2018-09-09T16:54:56.210Z,1576.00
2018-09-09T16:55:56.144Z,1524.00
2018-09-09T16:56:56.075Z,1516.00
2018-09-09T16:57:56.008Z,1560.00
2018-09-09T16:58:55.936Z,1584.00
2018-09-09T16:59:55.870Z,1568.00
2018-09-09T17:00:55.811Z,1524.00
2018-09-09T17:01:55.730Z,1488.00
2018-09-09T17:02:55.667Z,1444.00
2018-09-09T17:03:55.598Z,1412.00
2018-09-09T17:04:55.550Z,1368.00
2018-09-09T17:05:55.458Z,1328.00
2018-09-09T17:06:55.388Z,1284.00
2018-09-09T17:07:55.319Z,1236.00
2018-09-09T17:08:55.266Z,1184.00
2018-09-09T17:09:55.184Z,1100.00
2018-09-09T17:10:55.130Z,1028.00
2018-09-09T17:11:55.046Z,1004.00
2018-09-09T17:12:54.976Z,996.00
2018-09-09T17:13:54.907Z,972.00
2018-09-09T17:14:54.841Z,920.00
2018-09-09T17:15:54.767Z,848.00
2018-09-09T17:16:54.699Z,768.00
2018-09-09T17:17:54.633Z,712.00
2018-09-09T17:18:54.566Z,652.00
2018-09-09T17:19:54.495Z,580.00
2018-09-09T17:20:54.422Z,520.00
2018-09-09T17:21:54.358Z,460.00
2018-09-09T17:22:54.450Z,416.00
2018-09-09T17:23:54.218Z,388.00
2018-09-09T17:24:54.147Z,356.00
2018-09-09T17:25:54.075Z,328.00
2018-09-09T17:26:54.014Z,300.00
2018-09-09T17:27:54.005Z,276.00
2018-09-09T17:28:53.869Z,252.00
2018-09-09T17:29:53.801Z,232.00
2018-09-09T17:30:53.728Z,208.00
2018-09-09T17:31:53.663Z,188.00
2018-09-09T17:32:53.588Z,180.00
2018-09-09T17:33:53.522Z,168.00
2018-09-09T17:34:53.451Z,152.00
2018-09-09T17:35:53.379Z,144.00
2018-09-09T17:36:53.311Z,132.00
2018-09-09T17:37:53.557Z,124.00
2018-09-09T17:38:53.174Z,116.00
2018-09-09T17:39:53.147Z,112.00
2018-09-09T17:40:53.033Z,104.00
2018-09-09T17:41:53.010Z,92.00
2018-09-09T17:42:52.979Z,84.00
2018-09-09T17:43:52.863Z,80.00
2018-09-09T17:44:52.759Z,68.00
2018-09-09T17:45:52.681Z,60.00
2018-09-09T17:46:52.609Z,52.00
2018-09-09T17:47:52.569Z,44.00
2018-09-09T17:48:52.470Z,40.00
2018-09-09T17:49:52.398Z,36.00
2018-09-09T17:50:52.330Z,28.00
2018-09-09T17:51:52.261Z,24.00
2018-09-09T17:52:52.227Z,20.00
2018-09-09T17:53:52.124Z,20.00
2018-09-09T17:54:52.049Z,12.00
2018-09-09T17:55:51.980Z,8.00
2018-09-09T17:56:51.919Z,8.00
2018-09-09T17:57:51.842Z,12.00
2018-09-09T17:58:51.761Z,8.00
2018-09-09T17:59:51.688Z,8.00
2018-09-09T18:00:51.624Z,4.00
2018-09-09T18:01:51.552Z,4.00
2018-09-09T18:02:51.545Z,4.00
2018-09-09T18:03:51.417Z,4.00
2018-09-09T18:04:51.338Z,4.00
2018-09-09T18:05:51.263Z,4.00
2018-09-09T18:06:51.194Z,0.00
2018-09-09T18:07:51.134Z,0.00
2018-09-09T18:08:51.123Z,0.00
2018-09-09T18:09:51.067Z,0.00
2018-09-09T18:10:50.980Z,4.00
2018-09-09T18:11:50.853Z,4.00
2018-09-09T18:12:50.795Z,0.00
2018-09-09T18:13:50.697Z,0.00
2018-09-09T18:14:50.621Z,0.00
2018-09-09T18:15:50.553Z,0.00
2018-09-09T18:16:50.478Z,0.00
2018-09-09T18:17:50.438Z,0.00
2018-09-09T18:18:50.340Z,0.00
2018-09-09T18:19:50.267Z,0.00
2018-09-09T18:20:50.210Z,0.00
2018-09-09T18:21:50.188Z,0.00
2018-09-09T18:22:50.091Z,0.00
2018-09-09T18:23:49.977Z,0.00
2018-09-09T18:24:49.914Z,0.00
2018-09-09T18:25:49.838Z,0.00
2018-09-09T18:26:49.771Z,0.00
2018-09-09T18:27:49.692Z,0.00
2018-09-09T18:28:49.624Z,0.00
2018-09-09T18:29:49.596Z,0.00
2018-09-09T18:30:49.508Z,0.00
2018-09-09T18:31:49.412Z,0.00
2018-09-09T18:32:49.356Z,0.00
2018-09-09T18:33:49.262Z,0.00
2018-09-09T18:34:49.215Z,0.00
2018-09-09T18:35:49.123Z,0.00
2018-09-09T18:36:49.047Z,0.00
2018-09-09T18:37:49.699Z,0.00
2018-09-09T18:38:48.930Z,0.00
2018-09-09T18:39:48.896Z,0.00
2018-09-09T18:40:48.786Z,0.00
2018-09-09T18:41:48.721Z,0.00
2018-09-09T18:42:48.631Z,0.00
2018-09-09T18:43:48.540Z,0.00
2018-09-09T18:44:48.549Z,0.00
2018-09-09T18:45:48.420Z,0.00
2018-09-09T18:46:48.347Z,0.00
2018-09-09T18:47:48.253Z,0.00
2018-09-09T18:48:48.180Z,0.00
2018-09-09T18:49:48.141Z,0.00
2018-09-09T18:50:48.062Z,0.00
2018-09-09T18:51:47.970Z,0.00
2018-09-09T18:52:47.901Z,0.00
2018-09-09T18:53:47.823Z,0.00
2018-09-09T18:54:47.748Z,0.00
2018-09-09T18:55:47.677Z,0.00
2018-09-09T18:56:47.612Z,0.00
2018-09-09T18:57:47.571Z,0.00
2018-09-09T18:58:47.514Z,0.00
2018-09-09T18:59:47.397Z,0.00
2018-09-09T19:00:47.337Z,0.00
2018-09-09T19:01:47.379Z,0.00
2018-09-09T19:02:47.195Z,0.00
2018-09-09T19:03:47.142Z,0.00
2018-09-09T19:04:47.022Z,0.00
2018-09-09T19:05:46.972Z,0.00
2018-09-09T19:06:46.926Z,0.00
2018-09-09T19:07:46.808Z,0.00
2018-09-09T19:08:46.734Z,0.00
2018-09-09T19:09:46.661Z,0.00
2018-09-09T19:10:46.592Z,0.00
2018-09-09T19:11:46.515Z,0.00
2018-09-09T19:12:46.446Z,0.00
2018-09-09T19:13:46.376Z,0.00
2018-09-09T19:14:46.299Z,0.00
2018-09-09T19:15:46.227Z,0.00
2018-09-09T19:16:46.153Z,0.00
2018-09-09T19:17:46.082Z,0.00
2018-09-09T19:18:46.008Z,0.00
2018-09-09T19:19:45.938Z,0.00
2018-09-09T19:20:45.870Z,0.00
2018-09-09T19:21:45.843Z,0.00
2018-09-09T19:22:45.723Z,0.00
2018-09-09T19:23:45.647Z,0.00
2018-09-09T19:24:45.572Z,0.00
2018-09-09T19:25:45.502Z,0.00
2018-09-09T19:26:45.424Z,0.00
2018-09-09T19:27:45.350Z,0.00
2018-09-09T19:28:45.326Z,0.00
2018-09-09T19:29:45.206Z,0.00
2018-09-09T19:30:45.133Z,0.00
2018-09-09T19:31:45.063Z,0.00
2018-09-09T19:32:44.990Z,0.00
2018-09-09T19:33:44.915Z,0.00
2018-09-09T19:34:44.847Z,0.00
2018-09-09T19:35:44.912Z,0.00
2018-09-09T19:36:44.711Z,0.00
2018-09-09T19:37:44.656Z,0.00
2018-09-09T19:38:44.554Z,0.00
2018-09-09T19:39:44.477Z,0.00
2018-09-09T19:40:44.403Z,0.00
2018-09-09T19:41:44.362Z,0.00
2018-09-09T19:42:44.280Z,0.00
2018-09-09T19:43:44.184Z,0.00
2018-09-09T19:44:44.113Z,0.00
2018-09-09T19:45:44.040Z,0.00
2018-09-09T19:46:43.971Z,0.00
2018-09-09T19:47:43.899Z,0.00
2018-09-09T19:48:43.821Z,0.00
2018-09-09T19:49:43.750Z,0.00
2018-09-09T19:50:43.683Z,0.00
2018-09-09T19:51:43.607Z,0.00
2018-09-09T19:52:43.524Z,0.00
2018-09-09T19:53:43.454Z,0.00
2018-09-09T19:54:43.380Z,0.00
2018-09-09T19:55:43.342Z,0.00
2018-09-09T19:56:43.231Z,0.00
2018-09-09T19:57:43.158Z,0.00
2018-09-09T19:58:43.144Z,0.00
2018-09-09T19:59:43.020Z,0.00
2018-09-09T20:00:42.938Z,0.00
2018-09-09T20:01:42.867Z,0.00
2018-09-09T20:02:42.801Z,0.00
2018-09-09T20:03:42.731Z,0.00
2018-09-09T20:04:42.709Z,0.00
2018-09-09T20:05:42.571Z,0.00
2018-09-09T20:06:42.602Z,0.00
2018-09-09T20:07:42.433Z,0.00
2018-09-09T20:08:42.370Z,0.00
2018-09-09T20:09:42.282Z,0.00
2018-09-09T20:10:42.205Z,0.00
2018-09-09T20:11:42.130Z,0.00
2018-09-09T20:12:42.055Z,0.00
2018-09-09T20:13:41.980Z,0.00
2018-09-09T20:14:41.910Z,0.00
2018-09-09T20:15:41.847Z,0.00
2018-09-09T20:16:41.770Z,0.00
2018-09-09T20:17:41.689Z,0.00
2018-09-09T20:18:41.613Z,0.00
2018-09-09T20:19:41.537Z,0.00
2018-09-09T20:20:41.465Z,0.00
2018-09-09T20:21:41.394Z,0.00
2018-09-09T20:22:41.321Z,0.00
2018-09-09T20:23:41.248Z,0.00
2018-09-09T20:24:41.176Z,0.00
2018-09-09T20:25:41.130Z,0.00
2018-09-09T20:26:41.021Z,0.00
2018-09-09T20:27:40.948Z,0.00
2018-09-09T20:28:40.883Z,0.00
2018-09-09T20:29:40.805Z,0.00
2018-09-09T20:30:40.725Z,0.00
2018-09-09T20:31:40.656Z,0.00
2018-09-09T20:32:40.625Z,0.00
2018-09-09T20:33:40.509Z,0.00
2018-09-09T20:34:40.448Z,0.00
2018-09-09T20:35:40.355Z,0.00
2018-09-09T20:36:40.283Z,0.00
2018-09-09T20:37:40.206Z,0.00
2018-09-09T20:38:40.204Z,0.00
2018-09-09T20:39:40.065Z,0.00
2018-09-09T20:40:39.985Z,0.00
2018-09-09T20:41:39.935Z,0.00
2018-09-09T20:42:39.842Z,0.00
2018-09-09T20:43:39.767Z,0.00
2018-09-09T20:44:39.688Z,0.00
2018-09-09T20:45:39.618Z,0.00
2018-09-09T20:46:39.539Z,0.00
2018-09-09T20:47:39.470Z,0.00
2018-09-09T20:48:39.441Z,0.00
2018-09-09T20:49:39.315Z,0.00
2018-09-09T20:50:39.261Z,0.00
2018-09-09T20:51:39.168Z,0.00
2018-09-09T20:52:39.093Z,0.00
2018-09-09T20:53:39.021Z,0.00
2018-09-09T20:54:38.945Z,0.00
2018-09-09T20:55:38.881Z,0.00
2018-09-09T20:56:38.802Z,0.00
2018-09-09T20:57:38.722Z,0.00
2018-09-09T20:58:38.650Z,0.00
2018-09-09T20:59:38.573Z,0.00
2018-09-09T21:00:38.498Z,0.00
2018-09-09T21:01:38.425Z,0.00
2018-09-09T21:02:38.349Z,0.00
2018-09-09T21:03:38.276Z,0.00
2018-09-09T21:04:38.200Z,0.00
2018-09-09T21:05:38.125Z,0.00
2018-09-09T21:06:38.057Z,0.00
2018-09-09T21:07:37.975Z,0.00
2018-09-09T21:08:37.910Z,0.00
2018-09-09T21:09:37.890Z,0.00
2018-09-09T21:10:37.773Z,0.00
2018-09-09T21:11:37.678Z,0.00
2018-09-09T21:12:37.602Z,0.00
2018-09-09T21:13:37.532Z,0.00
2018-09-09T21:14:37.483Z,0.00
2018-09-09T21:15:37.382Z,0.00
2018-09-09T21:16:37.411Z,0.00
2018-09-09T21:17:37.273Z,0.00
2018-09-09T21:18:37.155Z,0.00
2018-09-09T21:19:37.081Z,0.00
2018-09-09T21:20:37.008Z,0.00
2018-09-09T21:21:36.931Z,0.00
2018-09-09T21:22:36.857Z,0.00
2018-09-09T21:23:36.782Z,0.00
2018-09-09T21:24:36.706Z,0.00
2018-09-09T21:25:36.631Z,0.00
2018-09-09T21:26:36.557Z,0.00
2018-09-09T21:27:36.487Z,0.00
2018-09-09T21:28:36.407Z,0.00
2018-09-09T21:29:36.336Z,0.00
2018-09-09T21:30:36.258Z,0.00
2018-09-09T21:31:36.181Z,0.00
2018-09-09T21:32:36.113Z,0.00
2018-09-09T21:33:36.035Z,0.00
2018-09-09T21:34:35.959Z,0.00
2018-09-09T21:35:35.887Z,0.00
2018-09-09T21:36:35.809Z,0.00
2018-09-09T21:37:35.740Z,0.00
2018-09-09T21:38:35.709Z,0.00
2018-09-09T21:39:35.587Z,0.00
2018-09-09T21:40:35.510Z,0.00
2018-09-09T21:41:35.435Z,0.00
2018-09-09T21:42:35.361Z,0.00
2018-09-09T21:43:35.285Z,0.00
2018-09-09T21:44:35.208Z,0.00
2018-09-09T21:45:35.137Z,0.00
2018-09-09T21:46:35.059Z,0.00
2018-09-09T21:47:34.988Z,0.00
2018-09-09T21:48:34.911Z,0.00
2018-09-09T21:49:34.836Z,0.00
2018-09-09T21:50:34.761Z,0.00
2018-09-09T21:51:34.691Z,0.00
2018-09-09T21:52:34.614Z,0.00
2018-09-09T21:53:34.537Z,0.00
2018-09-09T21:54:34.458Z,0.00
2018-09-09T21:55:34.383Z,0.00
2018-09-09T21:56:34.308Z,0.00
2018-09-09T21:57:34.232Z,0.00
2018-09-09T21:58:34.162Z,0.00
2018-09-09T21:59:34.082Z,0.00
2018-09-09T22:00:34.008Z,0.00
2018-09-09T22:01:33.937Z,0.00
2018-09-09T22:02:33.864Z,0.00
2018-09-09T22:03:33.790Z,0.00
2018-09-09T22:04:33.712Z,0.00
2018-09-09T22:05:33.637Z,0.00
2018-09-09T22:06:33.558Z,0.00
2018-09-09T22:07:33.481Z,0.00
2018-09-09T22:08:33.406Z,0.00
2018-09-09T22:09:33.366Z,0.00
2018-09-09T22:10:33.276Z,0.00
2018-09-09T22:11:33.185Z,0.00
2018-09-09T22:12:33.106Z,0.00
2018-09-09T22:13:33.030Z,0.00
2018-09-09T22:14:32.988Z,0.00
2018-09-09T22:15:32.883Z,0.00
2018-09-09T22:16:32.804Z,0.00
2018-09-09T22:17:32.747Z,0.00
2018-09-09T22:18:32.654Z,0.00
2018-09-09T22:19:32.579Z,0.00
2018-09-09T22:20:32.508Z,0.00
2018-09-09T22:21:32.428Z,0.00
2018-09-09T22:22:32.353Z,0.00
2018-09-09T22:23:32.301Z,0.00
2018-09-09T22:24:32.206Z,0.00
2018-09-09T22:25:32.128Z,0.00
2018-09-09T22:26:32.054Z,0.00
2018-09-09T22:27:31.977Z,0.00
2018-09-09T22:28:31.907Z,0.00
2018-09-09T22:29:31.829Z,0.00
2018-09-09T22:30:31.761Z,0.00
2018-09-09T22:31:31.673Z,0.00
2018-09-09T22:32:31.600Z,0.00
2018-09-09T22:33:31.526Z,0.00
2018-09-09T22:34:31.455Z,0.00
2018-09-09T22:35:31.374Z,0.00
2018-09-09T22:36:31.295Z,0.00
2018-09-09T22:37:31.221Z,0.00
2018-09-09T22:38:31.145Z,0.00
2018-09-09T22:39:31.072Z,0.00
2018-09-09T22:40:30.994Z,0.00
2018-09-09T22:41:30.917Z,0.00
2018-09-09T22:42:30.843Z,0.00
2018-09-09T22:43:30.769Z,0.00
2018-09-09T22:44:30.699Z,0.00
2018-09-09T22:45:30.618Z,0.00
2018-09-09T22:46:30.542Z,0.00
2018-09-09T22:47:30.464Z,0.00
2018-09-09T22:48:30.389Z,0.00
2018-09-09T22:49:30.319Z,0.00
2018-09-09T22:50:30.238Z,0.00
2018-09-09T22:51:30.169Z,0.00
2018-09-09T22:52:30.087Z,0.00
2018-09-09T22:53:30.012Z,0.00
2018-09-09T22:54:29.935Z,0.00
2018-09-09T22:55:29.864Z,0.00
2018-09-09T22:56:29.794Z,0.00
2018-09-09T22:57:29.713Z,0.00
2018-09-09T22:58:29.634Z,0.00
2018-09-09T22:59:29.566Z,0.00
2018-09-09T23:00:29.483Z,0.00
2018-09-09T23:01:29.408Z,0.00
2018-09-09T23:02:29.331Z,0.00
2018-09-09T23:03:29.262Z,0.00
2018-09-09T23:04:29.182Z,0.00
2018-09-09T23:05:29.174Z,0.00
2018-09-09T23:06:29.035Z,0.00
2018-09-09T23:07:28.953Z,0.00
2018-09-09T23:08:28.879Z,0.00
2018-09-09T23:09:28.801Z,0.00
2018-09-09T23:10:28.733Z,0.00
2018-09-09T23:11:28.651Z,0.00
2018-09-09T23:12:28.584Z,0.00
2018-09-09T23:13:28.498Z,0.00
2018-09-09T23:14:28.423Z,0.00
2018-09-09T23:15:28.352Z,0.00
2018-09-09T23:16:28.273Z,0.00
2018-09-09T23:17:28.195Z,0.00
2018-09-09T23:18:28.121Z,0.00
2018-09-09T23:19:28.044Z,0.00
2018-09-09T23:20:27.969Z,0.00
2018-09-09T23:21:27.899Z,0.00
2018-09-09T23:22:27.817Z,0.00
2018-09-09T23:23:27.749Z,0.00
2018-09-09T23:24:27.681Z,0.00
2018-09-09T23:25:27.590Z,0.00
2018-09-09T23:26:27.517Z,0.00
2018-09-09T23:27:27.443Z,0.00
2018-09-09T23:28:27.363Z,0.00
2018-09-09T23:29:27.290Z,0.00
2018-09-09T23:30:27.211Z,0.00
2018-09-09T23:31:27.134Z,0.00
2018-09-09T23:32:27.063Z,0.00
2018-09-09T23:33:26.987Z,0.00
2018-09-09T23:34:26.907Z,0.00
2018-09-09T23:35:26.838Z,0.00
2018-09-09T23:36:26.753Z,0.00
2018-09-09T23:37:26.682Z,0.00
2018-09-09T23:38:26.603Z,0.00
2018-09-09T23:39:26.526Z,0.00
2018-09-09T23:40:26.462Z,0.00
2018-09-09T23:41:26.383Z,0.00
2018-09-09T23:42:26.301Z,0.00
2018-09-09T23:43:26.227Z,0.00
2018-09-09T23:44:26.146Z,0.00
2018-09-09T23:45:26.069Z,0.00
2018-09-09T23:46:26.004Z,0.00
2018-09-09T23:47:25.924Z,0.00
2018-09-09T23:48:25.847Z,0.00
2018-09-09T23:49:25.768Z,0.00
2018-09-09T23:50:25.694Z,0.00
2018-09-09T23:51:25.615Z,0.00
2018-09-09T23:52:25.543Z,0.00
2018-09-09T23:53:25.465Z,0.00
2018-09-09T23:54:25.385Z,0.00
2018-09-09T23:55:25.308Z,0.00
2018-09-09T23:56:25.245Z,0.00
2018-09-09T23:57:25.161Z,0.00
2018-09-09T23:58:25.084Z,0.00
2018-09-09T23:59:25.011Z,0.00
